sensor_id;sensor_type;location;lat;lon;timestamp;pressure;altitude;pressure_sealevel;temperature;humidity
65534;BME280;53640;55.838;37.184;2023-02-15T00:02:02;99505.25;;;-2.63;57.15
65534;BME280;53640;55.838;37.184;2023-02-15T00:04:29;99494.78;;;-2.64;57.47
65534;BME280;53640;55.838;37.184;2023-02-15T00:07:15;99504.13;;;-2.60;56.76
65534;BME280;53640;55.838;37.184;2023-02-15T00:09:41;99483.06;;;-2.83;57.68
65534;BME280;53640;55.838;37.184;2023-02-15T00:12:10;99495.03;;;-2.67;56.98
65534;BME280;53640;55.838;37.184;2023-02-15T00:14:36;99512.34;;;-2.63;57.11
65534;BME280;53640;55.838;37.184;2023-02-15T00:17:03;99476.88;;;-2.93;57.13
65534;BME280;53640;55.838;37.184;2023-02-15T00:19:30;99510.22;;;-2.69;57.08
65534;BME280;53640;55.838;37.184;2023-02-15T00:21:56;99492.72;;;-2.82;57.25
65534;BME280;53640;55.838;37.184;2023-02-15T00:24:25;99473.50;;;-2.95;57.23
65534;BME280;53640;55.838;37.184;2023-02-15T00:26:51;99461.75;;;-3.02;57.12
65534;BME280;53640;55.838;37.184;2023-02-15T00:29:19;99511.78;;;-2.67;57.28
65534;BME280;53640;55.838;37.184;2023-02-15T00:31:47;99503.38;;;-2.72;57.27
65534;BME280;53640;55.838;37.184;2023-02-15T00:34:25;99510.63;;;-2.74;57.25
65534;BME280;53640;55.838;37.184;2023-02-15T00:36:52;99479.25;;;-2.90;57.40
65534;BME280;53640;55.838;37.184;2023-02-15T00:39:19;99519.00;;;-2.69;57.62
65534;BME280;53640;55.838;37.184;2023-02-15T00:41:46;99510.13;;;-2.79;56.75
65534;BME280;53640;55.838;37.184;2023-02-15T00:44:13;99521.06;;;-2.72;57.02
65534;BME280;53640;55.838;37.184;2023-02-15T00:46:40;99532.13;;;-2.67;56.88
65534;BME280;53640;55.838;37.184;2023-02-15T00:49:11;99524.44;;;-2.70;56.54
65534;BME280;53640;55.838;37.184;2023-02-15T00:51:38;99521.47;;;-2.77;56.58
65534;BME280;53640;55.838;37.184;2023-02-15T00:54:06;99534.19;;;-2.71;57.08
65534;BME280;53640;55.838;37.184;2023-02-15T00:56:32;99526.75;;;-2.77;56.73
65534;BME280;53640;55.838;37.184;2023-02-15T00:58:58;99539.75;;;-2.74;56.68
65534;BME280;53640;55.838;37.184;2023-02-15T01:01:25;99537.81;;;-2.72;56.80
65534;BME280;53640;55.838;37.184;2023-02-15T01:03:52;99526.44;;;-2.84;56.44
65534;BME280;53640;55.838;37.184;2023-02-15T01:06:20;99516.66;;;-2.83;56.84
65534;BME280;53640;55.838;37.184;2023-02-15T01:08:48;99513.03;;;-2.82;56.63
65534;BME280;53640;55.838;37.184;2023-02-15T01:11:18;99515.59;;;-2.81;56.93
65534;BME280;53640;55.838;37.184;2023-02-15T01:13:49;99522.06;;;-2.73;56.47
65534;BME280;53640;55.838;37.184;2023-02-15T01:16:17;99526.63;;;-2.75;55.53
65534;BME280;53640;55.838;37.184;2023-02-15T01:18:45;99528.25;;;-2.84;55.09
65534;BME280;53640;55.838;37.184;2023-02-15T01:21:13;99524.88;;;-2.86;54.99
65534;BME280;53640;55.838;37.184;2023-02-15T01:23:44;99518.16;;;-2.90;54.80
65534;BME280;53640;55.838;37.184;2023-02-15T01:26:14;99539.53;;;-2.82;54.99
65534;BME280;53640;55.838;37.184;2023-02-15T01:28:44;99495.25;;;-3.12;55.41
65534;BME280;53640;55.838;37.184;2023-02-15T01:31:13;99533.78;;;-2.87;55.97
65534;BME280;53640;55.838;37.184;2023-02-15T01:33:40;99495.97;;;-3.10;55.59
65534;BME280;53640;55.838;37.184;2023-02-15T01:36:09;99523.13;;;-2.97;55.05
65534;BME280;53640;55.838;37.184;2023-02-15T01:38:37;99529.13;;;-2.95;55.57
65534;BME280;53640;55.838;37.184;2023-02-15T01:41:06;99538.38;;;-2.89;55.26
65534;BME280;53640;55.838;37.184;2023-02-15T01:43:58;99493.56;;;-3.13;55.60
65534;BME280;53640;55.838;37.184;2023-02-15T01:46:50;99548.00;;;-2.88;55.10
65534;BME280;53640;55.838;37.184;2023-02-15T01:49:19;99556.41;;;-2.83;55.25
65534;BME280;53640;55.838;37.184;2023-02-15T01:51:49;99503.97;;;-3.21;55.34
65534;BME280;53640;55.838;37.184;2023-02-15T01:54:23;99537.69;;;-3.02;55.34
65534;BME280;53640;55.838;37.184;2023-02-15T01:56:52;99548.88;;;-2.99;54.79
65534;BME280;53640;55.838;37.184;2023-02-15T01:59:23;99571.13;;;-2.90;54.70
65534;BME280;53640;55.838;37.184;2023-02-15T02:01:52;99527.16;;;-3.14;55.09
65534;BME280;53640;55.838;37.184;2023-02-15T02:07:09;99556.59;;;-2.96;55.06
65534;BME280;53640;55.838;37.184;2023-02-15T02:09:40;99540.00;;;-3.09;54.27
65534;BME280;53640;55.838;37.184;2023-02-15T02:12:08;99550.22;;;-3.05;54.50
65534;BME280;53640;55.838;37.184;2023-02-15T02:14:36;99520.09;;;-3.24;54.89
65534;BME280;53640;55.838;37.184;2023-02-15T02:20:00;99563.09;;;-3.00;53.44
65534;BME280;53640;55.838;37.184;2023-02-15T02:30:59;99520.16;;;-3.47;54.24
65534;BME280;53640;55.838;37.184;2023-02-15T02:34:08;99556.91;;;-3.21;54.71
65534;BME280;53640;55.838;37.184;2023-02-15T02:36:59;99573.03;;;-3.24;53.05
65534;BME280;53640;55.838;37.184;2023-02-15T02:42:04;99576.81;;;-3.38;53.53
65534;BME280;53640;55.838;37.184;2023-02-15T02:44:43;99526.31;;;-3.69;53.82
65534;BME280;53640;55.838;37.184;2023-02-15T02:50:09;99550.09;;;-3.58;53.47
65534;BME280;53640;55.838;37.184;2023-02-15T02:52:45;99568.00;;;-3.50;53.96
65534;BME280;53640;55.838;37.184;2023-02-15T02:55:44;99577.66;;;-3.49;53.00
65534;BME280;53640;55.838;37.184;2023-02-15T03:00:55;99594.00;;;-3.44;53.44
65534;BME280;53640;55.838;37.184;2023-02-15T03:03:36;99568.63;;;-3.58;53.27
65534;BME280;53640;55.838;37.184;2023-02-15T03:06:14;99552.16;;;-3.72;53.68
65534;BME280;53640;55.838;37.184;2023-02-15T03:08:51;99588.25;;;-3.49;53.09
65534;BME280;53640;55.838;37.184;2023-02-15T03:11:20;99552.91;;;-3.82;53.13
65534;BME280;53640;55.838;37.184;2023-02-15T03:13:48;99543.41;;;-3.84;53.70
65534;BME280;53640;55.838;37.184;2023-02-15T03:16:18;99595.69;;;-3.54;53.62
65534;BME280;53640;55.838;37.184;2023-02-15T03:19:02;99590.16;;;-3.51;53.44
65534;BME280;53640;55.838;37.184;2023-02-15T03:24:10;99541.97;;;-3.88;53.58
65534;BME280;53640;55.838;37.184;2023-02-15T03:26:39;99606.50;;;-3.46;53.71
65534;BME280;53640;55.838;37.184;2023-02-15T03:29:09;99545.34;;;-3.86;53.24
65534;BME280;53640;55.838;37.184;2023-02-15T03:31:40;99593.88;;;-3.54;52.79
65534;BME280;53640;55.838;37.184;2023-02-15T03:34:11;99573.22;;;-3.71;53.43
65534;BME280;53640;55.838;37.184;2023-02-15T03:36:46;99561.91;;;-3.73;52.43
65534;BME280;53640;55.838;37.184;2023-02-15T03:42:38;99564.56;;;-3.73;52.55
65534;BME280;53640;55.838;37.184;2023-02-15T03:45:13;99604.22;;;-3.50;52.72
65534;BME280;53640;55.838;37.184;2023-02-15T03:47:45;99606.03;;;-3.51;53.23
65534;BME280;53640;55.838;37.184;2023-02-15T03:50:32;99610.34;;;-3.50;53.16
65534;BME280;53640;55.838;37.184;2023-02-15T03:53:21;99612.75;;;-3.47;53.37
65534;BME280;53640;55.838;37.184;2023-02-15T03:55:50;99624.19;;;-3.46;53.34
65534;BME280;53640;55.838;37.184;2023-02-15T03:58:20;99570.34;;;-3.68;53.57
65534;BME280;53640;55.838;37.184;2023-02-15T04:01:39;99616.13;;;-3.45;53.01
65534;BME280;53640;55.838;37.184;2023-02-15T04:04:39;99609.75;;;-3.54;52.40
65534;BME280;53640;55.838;37.184;2023-02-15T04:07:09;99615.03;;;-3.54;52.38
65534;BME280;53640;55.838;37.184;2023-02-15T04:09:36;99567.81;;;-3.81;52.42
65534;BME280;53640;55.838;37.184;2023-02-15T04:12:22;99615.91;;;-3.53;51.74
65534;BME280;53640;55.838;37.184;2023-02-15T04:14:48;99605.19;;;-3.63;51.55
65534;BME280;53640;55.838;37.184;2023-02-15T04:17:33;99612.16;;;-3.62;51.99
65534;BME280;53640;55.838;37.184;2023-02-15T04:20:03;99581.88;;;-3.80;51.95
65534;BME280;53640;55.838;37.184;2023-02-15T04:22:48;99529.47;;;-4.09;52.23
65534;BME280;53640;55.838;37.184;2023-02-15T04:25:33;99623.34;;;-3.58;52.49
65534;BME280;53640;55.838;37.184;2023-02-15T04:27:59;99624.91;;;-3.56;52.42
65534;BME280;53640;55.838;37.184;2023-02-15T04:30:26;99508.69;;;-4.24;52.24
65534;BME280;53640;55.838;37.184;2023-02-15T04:32:53;99575.13;;;-3.84;51.98
65534;BME280;53640;55.838;37.184;2023-02-15T04:35:21;99585.94;;;-3.76;52.17
65534;BME280;53640;55.838;37.184;2023-02-15T04:37:48;99588.50;;;-3.74;52.09
65534;BME280;53640;55.838;37.184;2023-02-15T04:40:16;99631.06;;;-3.55;51.70
65534;BME280;53640;55.838;37.184;2023-02-15T04:42:42;99627.69;;;-3.57;52.31
65534;BME280;53640;55.838;37.184;2023-02-15T04:45:11;99602.31;;;-3.71;52.21
65534;BME280;53640;55.838;37.184;2023-02-15T04:47:38;99598.09;;;-3.73;51.60
65534;BME280;53640;55.838;37.184;2023-02-15T04:50:06;99578.16;;;-3.89;51.20
65534;BME280;53640;55.838;37.184;2023-02-15T04:52:32;99623.59;;;-3.61;51.09
65534;BME280;53640;55.838;37.184;2023-02-15T04:54:59;99580.19;;;-3.92;50.57
65534;BME280;53640;55.838;37.184;2023-02-15T04:57:25;99555.09;;;-4.09;50.98
65534;BME280;53640;55.838;37.184;2023-02-15T04:59:53;99620.94;;;-3.72;51.20
65534;BME280;53640;55.838;37.184;2023-02-15T05:02:19;99605.81;;;-3.82;51.72
65534;BME280;53640;55.838;37.184;2023-02-15T05:04:46;99599.53;;;-3.92;51.45
65534;BME280;53640;55.838;37.184;2023-02-15T05:07:12;99633.09;;;-3.70;50.97
65534;BME280;53640;55.838;37.184;2023-02-15T05:09:40;99563.84;;;-4.09;51.63
65534;BME280;53640;55.838;37.184;2023-02-15T05:12:08;99644.13;;;-3.65;51.62
65534;BME280;53640;55.838;37.184;2023-02-15T05:14:35;99591.97;;;-3.96;51.73
65534;BME280;53640;55.838;37.184;2023-02-15T05:17:01;99599.06;;;-3.86;51.45
65534;BME280;53640;55.838;37.184;2023-02-15T05:19:29;99626.13;;;-3.71;51.73
65534;BME280;53640;55.838;37.184;2023-02-15T05:21:55;99619.63;;;-3.78;51.53
65534;BME280;53640;55.838;37.184;2023-02-15T05:24:22;99642.09;;;-3.72;51.82
65534;BME280;53640;55.838;37.184;2023-02-15T05:27:10;99629.84;;;-3.73;51.82
65534;BME280;53640;55.838;37.184;2023-02-15T05:29:55;99628.88;;;-3.84;50.94
65534;BME280;53640;55.838;37.184;2023-02-15T05:32:23;99613.34;;;-3.99;51.43
65534;BME280;53640;55.838;37.184;2023-02-15T05:34:49;99640.19;;;-3.82;51.61
65534;BME280;53640;55.838;37.184;2023-02-15T05:37:16;99620.47;;;-3.89;51.60
65534;BME280;53640;55.838;37.184;2023-02-15T05:39:42;99590.66;;;-4.13;51.56
65534;BME280;53640;55.838;37.184;2023-02-15T05:42:09;99594.81;;;-4.11;51.84
65534;BME280;53640;55.838;37.184;2023-02-15T05:44:38;99658.94;;;-3.73;51.47
65534;BME280;53640;55.838;37.184;2023-02-15T05:47:04;99608.28;;;-4.03;52.22
65534;BME280;53640;55.838;37.184;2023-02-15T05:49:33;99613.34;;;-3.99;52.07
65534;BME280;53640;55.838;37.184;2023-02-15T05:51:59;99638.59;;;-3.84;52.01
65534;BME280;53640;55.838;37.184;2023-02-15T05:54:26;99641.16;;;-3.83;50.52
65534;BME280;53640;55.838;37.184;2023-02-15T05:56:53;99643.88;;;-3.84;51.45
65534;BME280;53640;55.838;37.184;2023-02-15T05:59:19;99650.16;;;-3.85;51.32
65534;BME280;53640;55.838;37.184;2023-02-15T06:01:46;99660.88;;;-3.75;51.78
65534;BME280;53640;55.838;37.184;2023-02-15T06:04:13;99654.63;;;-3.74;51.44
65534;BME280;53640;55.838;37.184;2023-02-15T06:06:39;99658.56;;;-3.69;52.00
65534;BME280;53640;55.838;37.184;2023-02-15T06:09:06;99606.75;;;-3.94;51.93
65534;BME280;53640;55.838;37.184;2023-02-15T06:11:32;99607.97;;;-3.87;51.84
65534;BME280;53640;55.838;37.184;2023-02-15T06:13:58;99635.50;;;-3.78;50.76
65534;BME280;53640;55.838;37.184;2023-02-15T06:16:28;99665.06;;;-3.62;51.40
65534;BME280;53640;55.838;37.184;2023-02-15T06:18:55;99652.06;;;-3.65;51.30
65534;BME280;53640;55.838;37.184;2023-02-15T06:21:21;99638.00;;;-3.76;51.81
65534;BME280;53640;55.838;37.184;2023-02-15T06:23:47;99664.72;;;-3.68;50.81
65534;BME280;53640;55.838;37.184;2023-02-15T06:26:14;99608.19;;;-3.90;51.25
65534;BME280;53640;55.838;37.184;2023-02-15T06:28:41;99640.19;;;-3.70;51.62
65534;BME280;53640;55.838;37.184;2023-02-15T06:31:07;99675.31;;;-3.57;51.60
65534;BME280;53640;55.838;37.184;2023-02-15T06:33:35;99661.34;;;-3.59;51.75
65534;BME280;53640;55.838;37.184;2023-02-15T06:36:03;99667.50;;;-3.47;51.08
65534;BME280;53640;55.838;37.184;2023-02-15T06:38:31;99671.94;;;-3.48;51.24
65534;BME280;53640;55.838;37.184;2023-02-15T06:40:58;99628.03;;;-3.73;50.18
65534;BME280;53640;55.838;37.184;2023-02-15T06:43:24;99674.22;;;-3.43;49.79
65534;BME280;53640;55.838;37.184;2023-02-15T06:45:51;99638.00;;;-3.65;49.65
65534;BME280;53640;55.838;37.184;2023-02-15T06:48:17;99667.84;;;-3.41;50.78
65534;BME280;53640;55.838;37.184;2023-02-15T06:50:43;99683.50;;;-3.38;50.00
65534;BME280;53640;55.838;37.184;2023-02-15T06:53:09;99669.44;;;-3.49;50.08
65534;BME280;53640;55.838;37.184;2023-02-15T06:55:37;99679.88;;;-3.48;49.42
65534;BME280;53640;55.838;37.184;2023-02-15T06:58:06;99698.28;;;-3.35;50.07
65534;BME280;53640;55.838;37.184;2023-02-15T07:00:33;99655.09;;;-3.58;50.55
65534;BME280;53640;55.838;37.184;2023-02-15T07:02:59;99689.72;;;-3.39;49.10
65534;BME280;53640;55.838;37.184;2023-02-15T07:05:26;99692.38;;;-3.27;49.99
65534;BME280;53640;55.838;37.184;2023-02-15T07:07:58;99690.84;;;-3.30;49.80
65534;BME280;53640;55.838;37.184;2023-02-15T07:10:25;99697.94;;;-3.19;50.45
65534;BME280;53640;55.838;37.184;2023-02-15T07:12:52;99662.06;;;-3.35;49.56
65534;BME280;53640;55.838;37.184;2023-02-15T07:15:19;99671.34;;;-3.29;50.92
65534;BME280;53640;55.838;37.184;2023-02-15T07:17:49;99651.13;;;-3.30;50.46
65534;BME280;53640;55.838;37.184;2023-02-15T07:20:20;99695.59;;;-3.01;49.86
65534;BME280;53640;55.838;37.184;2023-02-15T07:22:48;99637.91;;;-3.30;50.69
65534;BME280;53640;55.838;37.184;2023-02-15T07:25:15;99688.84;;;-2.94;50.09
65534;BME280;53640;55.838;37.184;2023-02-15T07:27:42;99651.72;;;-3.15;50.49
65534;BME280;53640;55.838;37.184;2023-02-15T07:30:11;99665.19;;;-3.07;49.31
65534;BME280;53640;55.838;37.184;2023-02-15T07:32:38;99699.44;;;-2.83;49.41
65534;BME280;53640;55.838;37.184;2023-02-15T07:35:25;99701.38;;;-2.85;49.52
65534;BME280;53640;55.838;37.184;2023-02-15T07:37:53;99645.81;;;-3.19;48.47
65534;BME280;53640;55.838;37.184;2023-02-15T07:40:20;99682.59;;;-2.93;47.10
65534;BME280;53640;55.838;37.184;2023-02-15T07:42:49;99671.19;;;-3.05;48.38
65534;BME280;53640;55.838;37.184;2023-02-15T07:45:19;99670.47;;;-3.07;48.31
65534;BME280;53640;55.838;37.184;2023-02-15T07:47:45;99693.91;;;-2.91;49.20
65534;BME280;53640;55.838;37.184;2023-02-15T07:50:13;99685.72;;;-2.88;47.86
65534;BME280;53640;55.838;37.184;2023-02-15T07:52:39;99689.00;;;-2.96;47.62
65534;BME280;53640;55.838;37.184;2023-02-15T07:55:08;99685.25;;;-3.05;47.39
65534;BME280;53640;55.838;37.184;2023-02-15T07:57:43;99704.88;;;-2.96;47.58
65534;BME280;53640;55.838;37.184;2023-02-15T08:00:15;99711.63;;;-2.92;48.35
65534;BME280;53640;55.838;37.184;2023-02-15T08:02:48;99702.00;;;-2.93;49.63
65534;BME280;53640;55.838;37.184;2023-02-15T08:05:17;99679.97;;;-3.05;49.99
65534;BME280;53640;55.838;37.184;2023-02-15T08:07:44;99664.44;;;-3.09;48.55
65534;BME280;53640;55.838;37.184;2023-02-15T08:10:11;99697.03;;;-2.97;48.13
65534;BME280;53640;55.838;37.184;2023-02-15T08:12:59;99610.00;;;-3.45;48.25
65534;BME280;53640;55.838;37.184;2023-02-15T08:15:26;99717.59;;;-2.78;48.34
65534;BME280;53640;55.838;37.184;2023-02-15T08:17:52;99689.00;;;-2.96;48.60
65534;BME280;53640;55.838;37.184;2023-02-15T08:20:19;99720.75;;;-2.85;47.72
65534;BME280;53640;55.838;37.184;2023-02-15T08:22:48;99664.59;;;-3.22;47.84
65534;BME280;53640;55.838;37.184;2023-02-15T08:25:14;99726.78;;;-2.94;48.89
65534;BME280;53640;55.838;37.184;2023-02-15T08:27:43;99710.78;;;-3.03;49.12
65534;BME280;53640;55.838;37.184;2023-02-15T08:30:09;99720.16;;;-2.88;49.12
65534;BME280;53640;55.838;37.184;2023-02-15T08:32:37;99730.75;;;-2.77;48.76
65534;BME280;53640;55.838;37.184;2023-02-15T08:35:04;99737.00;;;-2.78;48.31
65534;BME280;53640;55.838;37.184;2023-02-15T08:37:30;99753.38;;;-2.73;48.71
65534;BME280;53640;55.838;37.184;2023-02-15T08:39:57;99743.25;;;-2.68;49.75
65534;BME280;53640;55.838;37.184;2023-02-15T08:42:23;99725.06;;;-2.72;49.40
65534;BME280;53640;55.838;37.184;2023-02-15T08:44:49;99718.56;;;-2.79;48.09
65534;BME280;53640;55.838;37.184;2023-02-15T08:47:17;99745.66;;;-2.65;48.84
65534;BME280;53640;55.838;37.184;2023-02-15T08:49:43;99745.88;;;-2.68;47.93
65534;BME280;53640;55.838;37.184;2023-02-15T08:52:11;99735.53;;;-2.71;48.15
65534;BME280;53640;55.838;37.184;2023-02-15T08:54:37;99739.28;;;-2.73;48.06
65534;BME280;53640;55.838;37.184;2023-02-15T08:57:03;99729.41;;;-2.83;47.91
65534;BME280;53640;55.838;37.184;2023-02-15T08:59:30;99740.59;;;-2.79;47.98
65534;BME280;53640;55.838;37.184;2023-02-15T09:01:56;99738.19;;;-2.82;47.68
65534;BME280;53640;55.838;37.184;2023-02-15T09:04:23;99757.22;;;-2.77;48.38
65534;BME280;53640;55.838;37.184;2023-02-15T09:06:51;99758.78;;;-2.74;48.49
65534;BME280;53640;55.838;37.184;2023-02-15T09:09:18;99703.69;;;-3.14;47.79
65534;BME280;53640;55.838;37.184;2023-02-15T09:11:50;99637.31;;;-3.56;48.13
65534;BME280;53640;55.838;37.184;2023-02-15T09:14:20;99714.75;;;-3.09;48.38
65534;BME280;53640;55.838;37.184;2023-02-15T09:16:48;99745.69;;;-2.87;48.01
65534;BME280;53640;55.838;37.184;2023-02-15T09:19:18;99754.34;;;-2.85;47.75
65534;BME280;53640;55.838;37.184;2023-02-15T09:21:45;99743.78;;;-2.96;47.65
65534;BME280;53640;55.838;37.184;2023-02-15T09:24:14;99747.63;;;-2.89;48.04
65534;BME280;53640;55.838;37.184;2023-02-15T09:26:44;99719.44;;;-3.13;48.16
65534;BME280;53640;55.838;37.184;2023-02-15T09:29:13;99649.56;;;-3.44;48.20
65534;BME280;53640;55.838;37.184;2023-02-15T09:31:42;99748.19;;;-2.74;47.31
65534;BME280;53640;55.838;37.184;2023-02-15T09:34:13;99752.03;;;-2.78;47.29
65534;BME280;53640;55.838;37.184;2023-02-15T09:36:42;99741.13;;;-2.85;47.58
65534;BME280;53640;55.838;37.184;2023-02-15T09:39:20;99756.72;;;-2.71;47.85
65534;BME280;53640;55.838;37.184;2023-02-15T09:42:24;99760.34;;;-2.61;47.69
65534;BME280;53640;55.838;37.184;2023-02-15T09:56:09;99767.56;;;-2.51;47.48
65534;BME280;53640;55.838;37.184;2023-02-15T10:01:30;99753.38;;;-2.73;47.56
65534;BME280;53640;55.838;37.184;2023-02-15T10:16:00;99695.16;;;-3.18;48.09
65534;BME280;53640;55.838;37.184;2023-02-15T10:18:42;99784.69;;;-2.67;48.10
65534;BME280;53640;55.838;37.184;2023-02-15T10:21:43;99798.88;;;-2.57;48.07
65534;BME280;53640;55.838;37.184;2023-02-15T10:24:16;99796.22;;;-2.57;47.74
65534;BME280;53640;55.838;37.184;2023-02-15T10:26:49;99784.41;;;-2.64;47.75
65534;BME280;53640;55.838;37.184;2023-02-15T10:29:39;99791.16;;;-2.60;46.30
65534;BME280;53640;55.838;37.184;2023-02-15T10:32:27;99792.38;;;-2.64;47.37
65534;BME280;53640;55.838;37.184;2023-02-15T10:37:40;99745.06;;;-2.91;46.34
65534;BME280;53640;55.838;37.184;2023-02-15T10:49:06;99711.88;;;-3.17;47.28
65534;BME280;53640;55.838;37.184;2023-02-15T11:00:09;99833.69;;;-2.50;47.54
65534;BME280;53640;55.838;37.184;2023-02-15T11:02:50;99831.50;;;-2.56;48.14
65534;BME280;53640;55.838;37.184;2023-02-15T11:07:50;99817.19;;;-2.53;48.40
65534;BME280;53640;55.838;37.184;2023-02-15T11:12:49;99834.63;;;-2.40;48.19
65534;BME280;53640;55.838;37.184;2023-02-15T11:15:26;99791.50;;;-2.53;47.64
65534;BME280;53640;55.838;37.184;2023-02-15T11:18:02;99808.59;;;-2.35;47.92
65534;BME280;53640;55.838;37.184;2023-02-15T11:20:42;99840.94;;;-2.09;47.88
65534;BME280;53640;55.838;37.184;2023-02-15T11:23:14;99804.09;;;-2.23;47.40
65534;BME280;53640;55.838;37.184;2023-02-15T11:25:45;99797.25;;;-2.25;47.46
65534;BME280;53640;55.838;37.184;2023-02-15T11:28:27;99839.25;;;-1.98;48.24
65534;BME280;53640;55.838;37.184;2023-02-15T11:30:58;99833.94;;;-1.98;48.64
65534;BME280;53640;55.838;37.184;2023-02-15T11:33:30;99856.22;;;-1.90;48.70
65534;BME280;53640;55.838;37.184;2023-02-15T11:36:45;99851.75;;;-1.89;48.65
65534;BME280;53640;55.838;37.184;2023-02-15T11:39:11;99817.56;;;-2.15;48.67
65534;BME280;53640;55.838;37.184;2023-02-15T11:41:41;99861.06;;;-1.95;48.22
65534;BME280;53640;55.838;37.184;2023-02-15T11:44:27;99856.84;;;-1.97;48.81
65534;BME280;53640;55.838;37.184;2023-02-15T11:46:58;99859.50;;;-1.97;48.49
65534;BME280;53640;55.838;37.184;2023-02-15T11:49:33;99839.31;;;-2.21;48.73
65534;BME280;53640;55.838;37.184;2023-02-15T11:52:05;99842.16;;;-2.13;48.63
65534;BME280;53640;55.838;37.184;2023-02-15T11:54:36;99857.59;;;-2.06;48.54
65534;BME280;53640;55.838;37.184;2023-02-15T11:57:14;99796.94;;;-2.54;48.84
65534;BME280;53640;55.838;37.184;2023-02-15T11:59:46;99837.16;;;-2.38;48.80
65534;BME280;53640;55.838;37.184;2023-02-15T12:02:19;99840.78;;;-2.39;49.03
65534;BME280;53640;55.838;37.184;2023-02-15T12:04:59;99872.19;;;-2.23;49.71
65534;BME280;53640;55.838;37.184;2023-02-15T12:07:30;99862.44;;;-2.23;49.61
65534;BME280;53640;55.838;37.184;2023-02-15T12:12:35;99841.16;;;-2.44;49.86
65534;BME280;53640;55.838;37.184;2023-02-15T12:15:08;99881.00;;;-2.23;49.55
65534;BME280;53640;55.838;37.184;2023-02-15T12:17:48;99866.91;;;-2.35;49.54
65534;BME280;53640;55.838;37.184;2023-02-15T12:20:44;99879.09;;;-2.32;49.41
65534;BME280;53640;55.838;37.184;2023-02-15T12:23:17;99770.25;;;-3.08;49.39
65534;BME280;53640;55.838;37.184;2023-02-15T12:25:55;99723.28;;;-3.50;49.52
65534;BME280;53640;55.838;37.184;2023-02-15T12:28:42;99877.53;;;-2.57;49.36
65534;BME280;53640;55.838;37.184;2023-02-15T12:33:50;99793.56;;;-3.24;49.26
65534;BME280;53640;55.838;37.184;2023-02-15T12:36:22;99866.44;;;-2.85;49.12
65534;BME280;53640;55.838;37.184;2023-02-15T12:39:29;99904.25;;;-2.71;49.21
65534;BME280;53640;55.838;37.184;2023-02-15T12:41:59;99898.34;;;-2.75;49.70
65534;BME280;53640;55.838;37.184;2023-02-15T12:44:31;99900.91;;;-2.73;50.13
65534;BME280;53640;55.838;37.184;2023-02-15T12:47:17;99861.84;;;-2.94;50.29
65534;BME280;53640;55.838;37.184;2023-02-15T12:52:31;99866.06;;;-3.02;50.19
65534;BME280;53640;55.838;37.184;2023-02-15T12:55:22;99871.59;;;-2.94;50.30
65534;BME280;53640;55.838;37.184;2023-02-15T12:58:17;99898.00;;;-2.82;50.48
65534;BME280;53640;55.838;37.184;2023-02-15T13:00:45;99925.84;;;-2.65;50.76
65534;BME280;53640;55.838;37.184;2023-02-15T13:03:20;99925.59;;;-2.62;50.41
65534;BME280;53640;55.838;37.184;2023-02-15T13:05:51;99914.16;;;-2.62;50.19
65534;BME280;53640;55.838;37.184;2023-02-15T13:08:28;99924.53;;;-2.59;50.54
65534;BME280;53640;55.838;37.184;2023-02-15T13:11:10;99864.75;;;-2.97;50.19
65534;BME280;53640;55.838;37.184;2023-02-15T13:16:44;99884.59;;;-3.02;48.83
65534;BME280;53640;55.838;37.184;2023-02-15T13:19:17;99834.00;;;-3.33;49.82
65534;BME280;53640;55.838;37.184;2023-02-15T13:21:50;99918.47;;;-2.84;49.54
65534;BME280;53640;55.838;37.184;2023-02-15T13:24:23;99887.38;;;-3.04;49.85
65534;BME280;53640;55.838;37.184;2023-02-15T13:26:51;99932.56;;;-2.72;49.07
65534;BME280;53640;55.838;37.184;2023-02-15T13:29:30;99948.97;;;-2.67;49.04
65534;BME280;53640;55.838;37.184;2023-02-15T13:34:54;99874.78;;;-3.24;48.68
65534;BME280;53640;55.838;37.184;2023-02-15T13:37:45;99950.13;;;-2.82;49.00
65534;BME280;53640;55.838;37.184;2023-02-15T13:40:53;99934.56;;;-2.98;48.40
65534;BME280;53640;55.838;37.184;2023-02-15T14:01:00;99931.25;;;-3.13;50.00
65534;BME280;53640;55.838;37.184;2023-02-15T14:15:03;99979.72;;;-2.99;49.91
65534;BME280;53640;55.838;37.184;2023-02-15T14:20:49;100004.25;;;-2.97;50.30
65534;BME280;53640;55.838;37.184;2023-02-15T14:27:04;100008.50;;;-2.95;50.57
65534;BME280;53640;55.838;37.184;2023-02-15T14:31:48;99955.75;;;-3.33;50.52
65534;BME280;53640;55.838;37.184;2023-02-15T14:34:36;100012.81;;;-2.94;50.60
65534;BME280;53640;55.838;37.184;2023-02-15T14:37:11;100009.31;;;-2.94;50.63
65534;BME280;53640;55.838;37.184;2023-02-15T14:39:47;100017.41;;;-2.96;50.69
65534;BME280;53640;55.838;37.184;2023-02-15T14:42:42;100009.47;;;-2.96;50.84
65534;BME280;53640;55.838;37.184;2023-02-15T14:48:28;100017.41;;;-2.96;50.71
65534;BME280;53640;55.838;37.184;2023-02-15T14:50:53;99987.97;;;-3.15;50.38
65534;BME280;53640;55.838;37.184;2023-02-15T14:56:27;100032.16;;;-3.05;49.87
65534;BME280;53640;55.838;37.184;2023-02-15T14:58:57;99987.72;;;-3.36;49.82
65534;BME280;53640;55.838;37.184;2023-02-15T15:01:31;99940.16;;;-3.73;49.75
65534;BME280;53640;55.838;37.184;2023-02-15T15:04:09;99978.78;;;-3.46;50.43
65534;BME280;53640;55.838;37.184;2023-02-15T15:06:40;100024.63;;;-3.22;49.87
65534;BME280;53640;55.838;37.184;2023-02-15T15:09:25;100028.13;;;-3.21;50.12
65534;BME280;53640;55.838;37.184;2023-02-15T15:14:48;100033.19;;;-3.18;50.05
65534;BME280;53640;55.838;37.184;2023-02-15T15:20:02;100031.47;;;-3.31;49.48
65534;BME280;53640;55.838;37.184;2023-02-15T15:22:32;100016.56;;;-3.44;49.98
65534;BME280;53640;55.838;37.184;2023-02-15T15:25:10;99986.50;;;-3.67;49.94
65534;BME280;53640;55.838;37.184;2023-02-15T15:27:51;100022.50;;;-3.54;49.99
65534;BME280;53640;55.838;37.184;2023-02-15T15:38:42;100037.53;;;-3.41;50.43
65534;BME280;53640;55.838;37.184;2023-02-15T15:41:35;100037.75;;;-3.44;50.51
65534;BME280;53640;55.838;37.184;2023-02-15T15:49:59;100026.25;;;-3.56;50.38
65534;BME280;53640;55.838;37.184;2023-02-15T15:52:29;99992.56;;;-3.78;50.11
65534;BME280;53640;55.838;37.184;2023-02-15T15:55:04;100005.22;;;-3.70;50.13